Radley, Kansas
Current Conditions -  °F | °C
As of 2:15 PM on Thursday 29 Jan 2015 (Local Time) from KPTS Reporting Station
Overcast Overcast  
Wind Chill: 41°   Ceiling: 3800
Heat Index: 46°   Visibility: 10mi
Dew Point: 31°   Wind: 12mph
Humidity: 55%   Direction: 350°N
Pressure: 30.36"   Gusts: 17mph
Location:  37.4268°N, 94.7004°W
Report Text: KPTS 292015Z AUTO 35010G15KT 10SM OVC038 08/M01 A3036 RMK AO2 T00801006
Loading
Personal Weather Stations






























Interactive Weather Map New forecast layout! Learn more

10-Day Weather Forecast

Advertisements
Track Severe Weather on mobile